Latest Coastal Weather Observations for Tasman Island

IDT60701

Issued at 3:32 pm EST Saturday 29 April 2017 (issued every 10 minutes, with the page automatically refreshed every 10 minutes)

About coastal observations | Map of coastal stations | Coastal observations for TAS | Marine services | Other Formats
Station Details ID: 094155 Name: TASMAN ISLAND Lat: -43.24 Lon: 148.00 Height: 240.0 m
Data from the previous 72 hours. | See also: Recent months at Tasman Island
Date/Time
EST
Temp
°C
Wind Pressure Rain since
9am
mm
Weather Cloud Vis
km
Sea
Height
m
Swell
Dir  Spd
kts
Gust
kts
hPa Trend Height
m
Period
s
Dir
29/03:30pm 11.0 SW 23 32 1017.9 - 0.2 - - - - - - -
29/03:00pm 11.0 SW 20 32 1017.4 - 0.2 - - - - - - -
29/02:30pm 11.2 SW 25 35 1017.1 - 0.2 - - - - - - -
29/02:22pm 11.5 SW 25 35 1016.8 - 0.2 - - - - - - -
29/02:00pm 11.0 SW 25 34 1016.7 - 0.2 - - - - - - -
29/01:30pm 11.6 SW 22 35 1016.6 - 0.2 - - - - - - -
29/01:00pm 11.6 SW 15 28 1016.5 - 0.2 - - - - - - -
29/12:30pm 11.5 SW 18 35 1016.5 - 0.2 - - - - - - -
29/12:06pm 11.1 SW 15 32 1016.5 - 0.2 - - - - - - -
29/12:00pm 11.3 SW 14 30 1016.6 - 0.2 Recent precip. - - - - - -
29/11:30am 11.3 SW 15 31 1016.5 - 0.0 - - - - - - -
29/11:00am 10.6 SW 23 39 1016.0 - 0.0 - - - - - - -
29/10:30am 11.4 SW 17 34 1015.4 - 0.0 - - - - - - -
29/10:08am 10.9 SW 15 37 1015.2 - 0.0 - - - - - - -
29/10:00am 10.9 WSW 14 37 1015.1 - 0.0 - - - - - - -
29/09:31am 11.2 SW 15 33 1014.8 - 0.0 - - - - - - -
29/09:30am 11.1 SW 14 30 1014.8 - 0.0 - - - - - - -
29/09:00am 10.5 SW 16 37 1014.4 - 0.6 Rain - - - - - -
29/08:30am 10.6 WSW 15 35 1013.9 - 0.2 - - - - - - -
29/08:00am 11.3 WSW 19 37 1013.2 - 0.0 - - - - - - -
29/07:30am 11.6 WSW 17 35 1012.7 - 0.0 - - - - - - -
29/07:18am 11.3 WSW 15 28 1012.5 - 0.0 - - - - - - -
29/07:00am 11.1 SW 12 29 1012.3 - 0.0 - - - - - - -
29/06:30am 11.1 SW 14 32 1012.0 - 0.0 - - - - - - -
29/06:00am 11.4 SW 16 33 1011.6 - 0.0 - - - - - - -
29/05:30am 11.7 SSW 17 33 1011.2 - 0.0 - - - - - - -
29/05:27am 11.7 SSW 15 33 1011.2 - 0.0 - - - - - - -
29/05:00am 12.4 WSW 5 16 1011.1 - 0.0 - - - - - - -
29/04:30am 12.4 W 5 13 1010.6 - 0.0 - - - - - - -
29/04:00am 12.5 W 9 21 1010.3 - 0.0 - - - - - - -
29/03:30am 12.5 W 8 21 1009.8 - 0.0 - - - - - - -
29/03:00am 12.7 NW 6 20 1009.8 - 0.0 - - - - - - -
29/02:30am 12.1 W 4 15 1010.0 - 0.0 - - - - - - -
29/02:00am 11.9 NNE 3 14 1010.1 - 0.0 - - - - - - -
29/01:30am 12.1 WSW 7 18 1010.0 - 0.0 - - - - - - -
29/01:00am 11.8 SW 15 35 1009.9 - 0.0 - - - - - - -
29/12:49am 11.8 SSW 18 43 1009.9 - 0.0 - - - - - - -
29/12:30am 12.3 SSW 15 31 1009.9 - 0.0 - - - - - - -
29/12:29am 12.3 SSW 15 31 1009.9 - 0.0 - - - - - - -
29/12:00am 12.5 SSW 12 24 1009.8 - 0.0 - - - - - - -
 
Date/Time
EST
Temp
°C
Wind Pressure Rain since
9am
mm
Weather Cloud Vis
km
Sea
Height
m
Swell
Dir  Spd
kts
Gust
kts
hPa Trend Height
m
Period
s
Dir
28/11:30pm 14.2 NNW 5 15 1009.7 - 0.0 - - - - - - -
28/11:00pm 14.1 WNW 5 15 1009.5 - 0.0 - - - - - - -
28/10:30pm 14.3 W 9 29 1009.4 - 0.0 - - - - - - -
28/10:00pm 14.2 WNW 8 21 1009.4 - 0.0 - - - - - - -
28/09:30pm 14.1 WNW 10 19 1009.7 - 0.0 - - - - - - -
28/09:00pm 14.1 WNW 11 16 1010.0 - 0.0 - - - - - - -
28/08:30pm 14.2 WNW 8 16 1010.2 - 0.0 - - - - - - -
28/08:00pm 14.0 WNW 8 19 1010.1 - 0.0 - - - - - - -
28/07:30pm 13.9 WNW 8 17 1010.1 - 0.0 - - - - - - -
28/07:00pm 13.9 WNW 8 17 1010.1 - 0.0 - - - - - - -
28/06:30pm 13.8 WNW 8 15 1010.1 - 0.0 - - - - - - -
28/06:00pm 14.0 NW 8 20 1010.0 - 0.0 - - - - - - -
28/05:30pm 14.4 WNW 12 19 1010.3 - 0.0 - - - - - - -
28/05:00pm 14.7 SW 9 24 1009.9 - 0.0 - - - - - - -
28/04:30pm 15.1 ESE 5 11 1010.3 - 0.0 - - - - - - -
28/04:00pm 15.6 NW 14 25 1010.3 - 0.0 - - - - - - -
28/03:30pm 15.6 WNW 8 15 1010.5 - 0.0 - - - - - - -
28/03:00pm 16.0 NW 9 17 1010.6 - 0.0 - - - - - - -
28/02:30pm 17.0 WNW 5 9 1010.8 - 0.0 - - - - - - -
28/02:00pm 16.6 NW 9 15 1011.0 - 0.0 - - - - - - -
28/01:30pm 15.4 WNW 8 11 1011.2 - 0.0 - - - - - - -
28/01:00pm 14.8 WNW 9 16 1011.6 - 0.0 - - - - - - -
28/12:30pm 15.3 NW 5 11 1012.0 - 0.0 - - - - - - -
28/12:00pm 14.7 WNW 9 12 1012.7 - 0.0 - - - - - - -
28/11:30am 15.3 NW 10 14 1013.2 - 0.0 - - - - - - -
28/11:00am 15.2 NW 9 13 1013.4 - 0.0 - - - - - - -
28/10:30am 14.2 NW 8 12 1013.8 - 0.0 - - - - - - -
28/10:00am 13.8 NW 9 14 1014.1 - 0.0 - - - - - - -
28/09:30am 13.5 WNW 8 13 1014.2 - 0.0 - - - - - - -
28/09:00am 13.3 WNW 7 10 1014.3 - 0.0 - - - - - - -
28/08:30am 12.9 NW 6 13 1014.4 - 0.0 - - - - - - -
28/08:00am 12.6 NNW 4 10 1014.3 - 0.0 - - - - - - -
28/07:30am 12.0 W 8 16 1014.0 - 0.0 - - - - - - -
28/07:00am 11.7 W 4 15 1014.1 - 0.0 - - - - - - -
28/06:30am 11.7 NW 4 10 1013.9 - 0.0 - - - - - - -
28/06:00am 11.6 NW 3 12 1014.1 - 0.0 - - - - - - -
28/05:30am 11.8 WSW 3 10 1014.0 - 0.0 - - - - - - -
28/05:00am 11.8 WSW 4 15 1013.9 - 0.0 - - - - - - -
28/04:30am 11.7 WSW 6 14 1013.6 - 0.0 - - - - - - -
28/04:00am 11.8 W 5 14 1013.6 - 0.0 - - - - - - -
28/03:30am 11.9 WSW 8 16 1013.6 - 0.0 - - - - - - -
28/03:00am 12.0 E 3 10 1013.6 - 0.0 - - - - - - -
28/02:30am 12.1 WSW 4 14 1013.6 - 0.0 - - - - - - -
28/02:00am 12.2 WSW 6 13 1013.5 - 0.0 - - - - - - -
28/01:30am 12.5 WSW 6 17 1013.3 - 0.0 - - - - - - -
28/01:00am 12.1 WSW 3 9 1013.3 - 0.0 - - - - - - -
28/12:30am 11.9 NW 4 10 1013.1 - 0.0 - - - - - - -
28/12:00am 12.2 WNW 5 12 1013.0 - 0.0 - - - - - - -
 
Date/Time
EST
Temp
°C
Wind Pressure Rain since
9am
mm
Weather Cloud Vis
km
Sea
Height
m
Swell
Dir  Spd
kts
Gust
kts
hPa Trend Height
m
Period
s
Dir
27/11:30pm 12.2 W 5 17 1013.0 - 0.0 - - - - - - -
27/11:00pm 11.9 WSW 6 16 1013.0 - 0.0 - - - - - - -
27/10:30pm 11.9 WNW 9 20 1013.0 - 0.0 - - - - - - -
27/10:00pm 11.8 WNW 15 25 1013.1 - 0.0 - - - - - - -
27/09:42pm 11.5 WNW 15 26 1013.2 - 0.0 - - - - - - -
27/09:30pm 11.2 WNW 13 21 1013.3 - 0.0 - - - - - - -
27/09:00pm 11.3 WNW 12 20 1013.6 - 0.0 - - - - - - -
27/08:30pm 11.3 WNW 15 25 1013.2 - 0.0 - - - - - - -
27/08:29pm 11.4 WNW 15 25 1013.2 - 0.0 - - - - - - -
27/08:00pm 11.1 NW 16 22 1013.4 - 0.0 - - - - - - -
27/07:30pm 11.1 WNW 14 23 1013.5 - 0.0 - - - - - - -
27/07:19pm 11.2 WNW 15 25 1013.7 - 0.0 - - - - - - -
27/07:00pm 11.0 WNW 11 17 1013.9 - 0.0 - - - - - - -
27/06:30pm 10.8 WNW 14 21 1014.0 - 0.0 - - - - - - -
27/06:00pm 10.2 NW 11 17 1014.1 - 0.0 - - - - - - -
27/05:30pm 10.3 NW 11 16 1014.1 - 0.0 - - - - - - -
27/05:00pm 10.4 NW 11 20 1014.4 - 0.0 - - - - - - -
27/04:30pm 10.4 NW 12 17 1014.6 - 0.0 - - - - - - -
27/04:00pm 10.5 NW 8 21 1014.9 - 0.0 - - - - - - -
27/03:30pm 10.6 WNW 4 13 1015.0 - 0.0 - - - - - - -
27/03:00pm 10.4 WNW 5 14 1015.0 - 0.0 - - - - - - -
27/02:30pm 10.4 W 6 19 1015.0 - 0.0 - - - - - - -
27/02:00pm 10.0 NW 5 14 1015.1 - 0.0 - - - - - - -
27/01:30pm 10.8 SW 4 13 1015.3 - 0.0 - - - - - - -
27/01:00pm 10.5 N 4 11 1015.8 - 0.0 - - - - - - -
27/12:30pm 9.9 NNW 6 15 1016.5 - 0.0 - - - - - - -
27/12:00pm 9.7 NNW 6 20 1017.0 - 0.0 - - - - - - -
27/11:30am 9.5 NW 4 15 1017.1 - 0.0 - - - - - - -
27/11:00am 9.2 N 5 14 1017.5 - 0.0 - - - - - - -
27/10:30am 8.6 W 7 22 1017.3 - 0.0 - - - - - - -
27/10:00am 8.7 W 6 25 1017.5 - 0.0 - - - - - - -
27/09:30am 8.6 NNW 3 9 1017.7 - 0.0 - - - - - - -
27/09:00am 7.7 W 5 13 1017.7 - 2.2 - - - - - - -
27/08:30am 7.4 ENE 4 12 1017.8 - 2.2 - - - - - - -
27/08:00am 7.1 NW 4 14 1017.6 - 2.2 - - - - - - -
27/07:30am 6.8 WSW 6 18 1017.5 - 2.2 - - - - - - -
27/07:00am 6.4 W 4 12 1017.4 - 2.2 - - - - - - -
27/06:30am 6.0 SSW 13 21 1017.5 - 2.2 - - - - - - -
27/06:00am 6.5 WSW 4 13 1017.3 - 1.2 Recent precip. - - - - - -
27/05:30am 7.1 WSW 4 12 1017.2 - 0.8 - - - - - - -
27/05:00am 7.5 SSW 11 17 1017.0 - 0.8 - - - - - - -
27/04:30am 7.2 SSW 12 19 1016.8 - 0.8 - - - - - - -
27/04:00am 6.8 SW 10 23 1016.5 - 0.8 - - - - - - -
27/03:34am 6.5 SW 13 25 1016.5 - 0.6 - - - - - - -
27/03:30am 6.7 SW 11 25 1016.4 - 0.2 - - - - - - -
27/03:00am 7.8 SSW 13 19 1016.5 - 0.2 - - - - - - -
27/02:30am 7.4 SSW 10 23 1016.8 - 0.2 - - - - - - -
27/02:00am 7.5 SSW 13 21 1016.7 - 0.2 - - - - - - -
27/01:30am 8.0 SSW 12 24 1016.6 - 0.2 - - - - - - -
27/01:00am 8.0 SSW 15 23 1016.4 - 0.2 - - - - - - -
27/12:30am 7.9 SSW 13 21 1016.4 - 0.2 - - - - - - -
27/12:00am 7.7 SSW 12 21 1016.0 - 0.2 - - - - - - -
 
Date/Time
EST
Temp
°C
Wind Pressure Rain since
9am
mm
Weather Cloud Vis
km
Sea
Height
m
Swell
Dir  Spd
kts
Gust
kts
hPa Trend Height
m
Period
s
Dir
26/11:30pm 7.5 SW 15 28 1016.0 - 0.2 - - - - - - -
26/11:00pm 7.5 SSW 19 31 1015.6 - 0.2 - - - - - - -
26/10:44pm 8.0 SSW 15 25 1015.6 - 0.2 - - - - - - -
26/10:30pm 7.7 SSW 15 22 1015.6 - 0.2 - - - - - - -
26/10:00pm 7.9 SSW 16 26 1015.5 - 0.2 - - - - - - -
26/09:30pm 8.1 SSW 17 26 1015.4 - 0.2 - - - - - - -
26/09:00pm 7.8 SSW 14 22 1015.0 - 0.2 - - - - - - -
26/08:39pm 7.9 SSW 17 27 1014.8 - 0.2 - - - - - - -
26/08:30pm 8.0 SSW 17 25 1014.7 - 0.2 - - - - - - -
26/08:02pm 8.1 SSW 20 30 1014.3 - 0.2 - - - - - - -
26/08:00pm 8.0 SSW 21 29 1014.2 - 0.2 - - - - - - -
26/07:30pm 8.2 SSW 15 28 1013.9 - 0.2 - - - - - - -
26/07:00pm 7.6 S 14 22 1013.6 - 0.2 - - - - - - -
26/06:39pm 7.6 S 15 25 1013.2 - 0.2 - - - - - - -
26/06:30pm 8.3 SSW 17 25 1012.8 - 0.2 - - - - - - -
26/06:05pm 7.4 S 15 27 1012.2 - 0.2 - - - - - - -
26/06:00pm 7.5 S 13 24 1012.2 - 0.2 - - - - - - -
26/05:30pm 7.1 S 18 29 1011.6 - 0.2 - - - - - - -
26/05:05pm 7.5 S 16 26 1011.2 - 0.2 - - - - - - -
26/05:00pm 7.5 S 15 24 1011.1 - 0.2 - - - - - - -
26/04:31pm 8.1 SSW 22 32 1010.4 - 0.2 - - - - - - -
26/04:30pm 8.2 SSW 21 31 1010.4 - 0.2 - - - - - - -
26/04:02pm 8.0 SSW 19 31 1010.0 - 0.2 - - - - - - -
26/04:00pm 8.0 SSW 19 28 1010.0 - 0.2 - - - - - - -

Other Formats:

Comma delimited format used in spreadsheet applications
http://www.bom.gov.au/fwo/IDT60701/IDT60701.95986.axf

JavaScript Object Notation format (JSON) in row-major order
http://www.bom.gov.au/fwo/IDT60701/IDT60701.95986.json